Time;durP1;ratioP1;P1;durP2;ratioP2;P2;SDS_P1;SDS_P2;PMS_P1;PMS_P2;Temp;Humidity;BMP_temperature;BMP_pressure;BME280_temperature;BME280_humidity;BME280_pressure;Samples;Min_cycle;Max_cycle;Signal;HPM_P1;HPM_P2
2021/04/14 00:01:05;;;;;;;42.60;34.65;;;;;;;1.93;86.53;99497.66;113092;1203;64426;-79
2021/04/14 00:03:32;;;;;;;42.10;32.20;;;;;;;1.97;86.50;99501.06;113145;1203;64432;-79
2021/04/14 00:06:00;;;;;;;39.80;32.05;;;;;;;1.97;86.64;99503.69;113094;1203;64800;-79
2021/04/14 00:08:29;;;;;;;44.50;33.80;;;;;;;1.95;86.65;99502.89;113104;1203;64336;-78
2021/04/14 00:10:57;;;;;;;44.60;33.60;;;;;;;1.94;86.70;99501.14;113242;1203;64503;-78
2021/04/14 00:13:29;;;;;;;36.20;29.17;;;;;;;1.97;86.73;99498.43;113396;1203;64496;-79
2021/04/14 00:15:58;;;;;;;34.90;27.80;;;;;;;1.92;86.92;99493.31;113399;1203;64442;-79
2021/04/14 00:18:26;;;;;;;37.70;29.70;;;;;;;1.88;86.81;99498.67;113230;1203;64387;-79
2021/04/14 00:20:54;;;;;;;36.60;28.40;;;;;;;1.86;86.99;99489.95;113234;1203;64392;-78
2021/04/14 00:23:22;;;;;;;38.25;29.90;;;;;;;1.83;86.92;99493.51;113145;1203;64541;-79
2021/04/14 00:25:51;;;;;;;35.73;28.27;;;;;;;1.85;86.85;99496.97;113164;1203;64467;-79
2021/04/14 00:28:21;;;;;;;40.75;33.45;;;;;;;1.84;87.21;99495.22;113122;1203;64432;-79
2021/04/14 00:30:49;;;;;;;37.53;30.03;;;;;;;1.84;87.01;99499.63;113169;1203;64375;-79
2021/04/14 00:33:17;;;;;;;33.30;28.30;;;;;;;1.80;87.20;99503.23;113135;1203;64393;-79
2021/04/14 00:35:44;;;;;;;35.40;28.30;;;;;;;1.76;86.74;99494.55;113192;1203;64378;-79
2021/04/14 00:38:13;;;;;;;33.57;27.27;;;;;;;1.73;86.93;99500.73;113192;1203;64474;-79
2021/04/14 00:40:42;;;;;;;34.33;26.17;;;;;;;1.70;87.14;99497.32;113194;1203;64416;-80
2021/04/14 00:43:16;;;;;;;35.65;28.20;;;;;;;1.67;86.76;99502.65;113429;1203;64394;-80
2021/04/14 00:45:42;;;;;;;37.90;27.80;;;;;;;1.63;86.94;99493.95;113386;1203;64385;-81
2021/04/14 00:48:13;;;;;;;32.38;26.30;;;;;;;1.62;86.82;99494.01;113304;1203;64388;-83
2021/04/14 00:50:41;;;;;;;38.70;30.50;;;;;;;1.59;86.95;99494.94;113461;1203;64471;-80
2021/04/14 00:53:09;;;;;;;37.35;29.00;;;;;;;1.58;86.87;99485.34;113283;1203;64400;-81
2021/04/14 00:55:37;;;;;;;32.20;26.70;;;;;;;1.57;86.67;99490.62;113356;1203;64403;-80
2021/04/14 00:58:06;;;;;;;32.10;24.80;;;;;;;1.57;86.87;99490.62;113213;1203;64397;-81
2021/04/14 01:00:40;;;;;;;33.60;27.17;;;;;;;1.53;86.81;99484.58;113139;1203;64468;-80
2021/04/14 01:03:14;;;;;;;34.60;25.53;;;;;;;1.50;86.80;99485.52;113097;1203;64372;-80
2021/04/14 01:05:42;;;;;;;34.30;26.85;;;;;;;1.53;87.10;99490.69;113124;1203;64391;-80
2021/04/14 01:08:10;;;;;;;32.63;26.47;;;;;;;1.52;86.80;99483.69;113173;1203;64396;-80
2021/04/14 01:10:36;;;;;;;28.70;24.27;;;;;;;1.51;86.78;99489.00;113374;1203;64365;-80
2021/04/14 01:13:04;;;;;;;29.65;24.25;;;;;;;1.50;86.99;99477.63;113175;1203;64403;-80
2021/04/14 01:15:34;;;;;;;31.10;26.45;;;;;;;1.49;86.95;99472.41;113289;1203;64375;-79
2021/04/14 01:18:01;;;;;;;32.85;27.55;;;;;;;1.51;86.77;99478.48;113375;1203;64420;-79
2021/04/14 01:20:28;;;;;;;27.85;23.55;;;;;;;1.52;87.04;99480.20;113366;1203;64397;-81
2021/04/14 01:22:55;;;;;;;32.17;26.63;;;;;;;1.48;86.72;99471.55;113358;1203;64429;-79
2021/04/14 01:25:30;;;;;;;30.30;24.10;;;;;;;1.48;86.67;99468.92;113271;1203;64535;-79
2021/04/14 01:27:56;;;;;;;32.60;26.83;;;;;;;1.45;86.80;99475.98;113153;1203;64446;-80
2021/04/14 01:30:26;;;;;;;32.65;27.70;;;;;;;1.44;86.64;99469.87;113201;1203;64394;-79
2021/04/14 01:32:52;;;;;;;;;;;;;;;1.46;86.91;99470.70;113154;1211;64394;-80
2021/04/14 01:35:22;;;;;;;36.00;29.00;;;;;;;1.46;87.03;99470.70;113241;1203;64416;-80
2021/04/14 01:37:58;;;;;;;27.00;23.60;;;;;;;1.45;87.10;99468.09;113385;1203;64391;-80
2021/04/14 01:40:27;;;;;;;28.05;23.70;;;;;;;1.43;87.14;99469.92;113389;1203;65931;-80
2021/04/14 01:42:55;;;;;;;31.85;26.70;;;;;;;1.42;86.98;99469.06;113154;1203;64378;-79
2021/04/14 01:45:31;;;;;;;27.60;24.40;;;;;;;1.42;87.11;99460.30;113351;1203;64363;-79
2021/04/14 01:47:59;;;;;;;31.70;26.35;;;;;;;1.42;87.13;99460.30;113272;1203;64458;-79
2021/04/14 01:50:26;;;;;;;33.65;28.90;;;;;;;1.42;87.24;99465.55;113364;1203;64506;-80
2021/04/14 01:52:55;;;;;;;34.10;30.40;;;;;;;1.38;87.17;99449.00;113250;1203;66582;-80
2021/04/14 01:55:23;;;;;;;32.60;29.10;;;;;;;1.39;87.36;99455.12;113323;1203;64726;-79
2021/04/14 01:57:49;;;;;;;30.90;27.40;;;;;;;1.43;87.22;99448.91;113403;1203;64355;-79
2021/04/14 02:00:55;;;;;;;30.70;25.00;;;;;;;1.46;87.32;99448.84;113372;1203;64474;-79
2021/04/14 02:03:24;;;;;;;30.17;27.00;;;;;;;1.47;87.37;99438.28;113116;1203;64388;-79
2021/04/14 02:05:51;;;;;;;30.57;27.37;;;;;;;1.48;87.43;99442.66;113343;1203;64556;-79
2021/04/14 02:08:19;;;;;;;26.00;23.30;;;;;;;1.47;87.31;99443.53;113060;1203;64474;-79
2021/04/14 02:10:46;;;;;;;26.90;22.70;;;;;;;1.45;87.56;99429.59;113248;1203;64409;-80
2021/04/14 02:13:17;;;;;;;24.75;21.60;;;;;;;1.44;87.55;99443.61;113365;1203;64378;-79
2021/04/14 02:15:44;;;;;;;25.30;22.00;;;;;;;1.43;87.58;99441.89;113276;1203;64538;-79
2021/04/14 02:18:11;;;;;;;21.80;18.95;;;;;;;1.43;87.85;99441.89;113083;1203;64433;-79
2021/04/14 02:20:38;;;;;;;21.00;18.85;;;;;;;1.40;87.79;99439.34;113110;1203;64411;-79
2021/04/14 02:23:13;;;;;;;20.70;18.60;;;;;;;1.40;87.83;99434.09;113156;1203;64384;-79
2021/04/14 02:25:41;;;;;;;20.83;18.73;;;;;;;1.39;87.98;99444.61;113122;1203;64352;-79
2021/04/14 02:28:08;;;;;;;21.00;18.60;;;;;;;1.38;87.82;99437.64;113148;1203;64393;-79
2021/04/14 02:30:36;;;;;;;22.90;19.10;;;;;;;1.38;88.04;99440.27;113413;1203;64365;-79
2021/04/14 02:33:06;;;;;;;18.93;17.03;;;;;;;1.39;87.74;99439.36;113262;1203;64409;-79
2021/04/14 02:35:34;;;;;;;19.35;16.95;;;;;;;1.39;87.90;99436.73;113264;1203;64400;-79
2021/04/14 02:38:02;;;;;;;18.90;17.00;;;;;;;1.38;87.93;99441.13;113402;1203;64346;-78
2021/04/14 02:40:28;;;;;;;18.00;16.20;;;;;;;1.38;88.07;99442.90;113337;1203;64703;-79
2021/04/14 02:42:55;;;;;;;16.73;14.97;;;;;;;1.37;87.97;99442.04;113212;1203;64496;-79
2021/04/14 02:45:26;;;;;;;14.45;13.00;;;;;;;1.35;88.29;99443.83;113136;1203;64474;-79
2021/04/14 02:47:53;;;;;;;14.53;13.20;;;;;;;1.34;88.21;99433.34;113327;1203;64368;-79
2021/04/14 02:50:20;;;;;;;14.35;13.05;;;;;;;1.30;88.06;99441.30;113372;1203;64426;-79
2021/04/14 02:52:47;;;;;;;15.17;13.70;;;;;;;1.28;87.86;99436.98;113399;1203;64475;-79
2021/04/14 02:55:16;;;;;;;15.40;13.90;;;;;;;1.28;88.02;99429.10;113373;1203;64493;-79
2021/04/14 02:57:43;;;;;;;15.30;13.90;;;;;;;1.26;88.06;99426.53;113373;1203;64417;-78
2021/04/14 03:00:11;;;;;;;15.80;14.30;;;;;;;1.21;88.09;99431.02;113343;1203;64368;-78
2021/04/14 03:02:38;;;;;;;14.40;13.00;;;;;;;1.19;88.20;99430.18;113392;1203;64397;-78
2021/04/14 03:05:07;;;;;;;15.95;14.30;;;;;;;1.14;88.05;99437.28;113361;1203;64532;-79
2021/04/14 03:07:34;;;;;;;15.70;14.13;;;;;;;1.14;88.07;99436.42;113385;1203;64560;-79
2021/04/14 03:10:01;;;;;;;15.45;13.95;;;;;;;1.11;88.20;99434.73;113337;1203;64419;-79
2021/04/14 03:12:27;;;;;;;17.85;16.20;;;;;;;1.10;88.04;99433.84;113093;1203;64345;-79
2021/04/14 03:14:55;;;;;;;15.70;14.17;;;;;;;1.11;87.95;99432.11;113090;1203;64391;-79
2021/04/14 03:17:22;;;;;;;16.45;14.85;;;;;;;1.07;87.99;99433.91;113151;1203;64435;-79
2021/04/14 03:19:48;;;;;;;16.83;15.17;;;;;;;1.04;88.14;99433.98;113360;1203;64381;-78
2021/04/14 03:22:15;;;;;;;17.40;15.60;;;;;;;1.03;88.22;99432.27;113368;1203;64388;-80
2021/04/14 03:24:42;;;;;;;17.30;15.60;;;;;;;1.02;88.04;99427.89;113300;1203;64385;-80
2021/04/14 03:27:10;;;;;;;16.77;15.17;;;;;;;1.01;88.08;99430.58;113288;1203;64365;-81
2021/04/14 03:29:37;;;;;;;17.17;15.53;;;;;;;1.01;88.38;99434.05;113396;1203;64404;-79
2021/04/14 03:32:04;;;;;;;17.07;15.27;;;;;;;1.00;88.12;99427.09;113418;1203;64320;-80
2021/04/14 03:34:31;;;;;;;17.15;15.45;;;;;;;1.01;88.13;99439.30;113351;1203;64388;-78
2021/04/14 03:36:57;;;;;;;18.97;17.03;;;;;;;1.02;88.03;99430.52;113493;1203;64477;-81
2021/04/14 03:39:24;;;;;;;16.60;15.10;;;;;;;1.01;88.20;99439.30;113346;1203;64388;-80
2021/04/14 03:41:50;;;;;;;19.10;17.10;;;;;;;1.00;88.06;99441.95;113299;1203;64544;-79
2021/04/14 03:44:17;;;;;;;18.67;16.77;;;;;;;1.00;87.78;99437.59;113233;1203;64445;-81
2021/04/14 03:46:43;;;;;;;20.00;17.93;;;;;;;0.99;87.84;99446.34;113194;1203;64554;-79
2021/04/14 03:49:10;;;;;;;21.30;18.50;;;;;;;0.97;88.27;99442.02;113164;1203;64468;-79
2021/04/14 03:51:36;;;;;;;23.50;21.00;;;;;;;0.94;87.95;99445.56;113126;1203;64407;-79
2021/04/14 03:54:04;;;;;;;21.50;19.40;;;;;;;0.95;88.16;99449.94;113087;1203;64465;-79
2021/04/14 03:56:30;;;;;;;22.60;20.30;;;;;;;0.95;88.17;99447.31;113082;1203;64455;-79
2021/04/14 03:58:57;;;;;;;23.50;21.10;;;;;;;0.93;88.10;99450.86;113102;1203;64442;-78
2021/04/14 04:01:29;;;;;;;21.65;19.35;;;;;;;0.92;88.17;99455.22;113073;1203;64375;-79
2021/04/14 04:03:58;;;;;;;24.03;21.37;;;;;;;0.89;88.06;99452.67;113137;1203;64368;-78
2021/04/14 04:06:26;;;;;;;22.80;20.35;;;;;;;0.90;88.10;99450.94;113161;1203;64423;-78
2021/04/14 04:08:53;;;;;;;25.05;21.25;;;;;;;0.90;88.07;99458.80;113105;1203;64384;-79
2021/04/14 04:11:23;;;;;;;23.60;21.20;;;;;;;0.90;88.09;99458.80;113164;1203;64407;-79
2021/04/14 04:13:51;;;;;;;23.00;20.70;;;;;;;0.92;88.21;99459.61;113350;1203;64353;-79
2021/04/14 04:16:19;;;;;;;24.50;22.00;;;;;;;0.92;87.90;99459.61;113258;1203;64471;-78
2021/04/14 04:18:45;;;;;;;20.90;18.80;;;;;;;0.92;88.30;99462.23;113109;1203;64519;-79
2021/04/14 04:21:12;;;;;;;21.13;18.83;;;;;;;0.91;88.13;99458.75;113384;1203;64471;-79
2021/04/14 04:23:39;;;;;;;20.30;18.15;;;;;;;0.93;88.06;99461.36;113124;1203;64496;-79
2021/04/14 04:26:07;;;;;;;21.50;19.40;;;;;;;0.95;88.20;99464.80;113153;1203;64355;-79
2021/04/14 04:28:33;;;;;;;19.90;17.90;;;;;;;0.98;88.25;99470.01;113351;1203;64435;-79
2021/04/14 04:31:01;;;;;;;19.90;17.85;;;;;;;1.01;88.23;99468.17;113314;1203;64435;-79
2021/04/14 04:33:27;;;;;;;20.80;18.60;;;;;;;1.05;88.13;99471.59;113290;1203;64433;-79
2021/04/14 04:35:54;;;;;;;23.30;21.00;;;;;;;1.05;88.03;99471.59;113370;1203;64468;-78
2021/04/14 04:38:22;;;;;;;26.00;23.40;;;;;;;1.07;87.94;99470.66;113195;1203;64423;-79
2021/04/14 04:40:49;;;;;;;30.60;27.23;;;;;;;1.08;88.15;99471.55;113106;1203;64391;-79
2021/04/14 04:43:16;;;;;;;33.20;28.15;;;;;;;1.07;88.07;99469.80;113069;1203;64475;-79
2021/04/14 04:45:43;;;;;;;37.10;29.35;;;;;;;1.09;88.06;99476.75;113222;1203;64404;-78
2021/04/14 04:48:10;;;;;;;34.90;28.60;;;;;;;1.11;87.89;99479.36;113308;1203;64391;-78
2021/04/14 04:50:39;;;;;;;25.50;22.80;;;;;;;1.14;87.83;99476.66;113399;1203;65673;-78
2021/04/14 04:53:19;;;;;;;33.85;25.25;;;;;;;1.15;87.88;99470.50;113395;1203;64346;-78
2021/04/14 04:55:47;;;;;;;24.27;21.70;;;;;;;1.19;87.88;99476.58;113381;1203;64478;-77
2021/04/14 04:58:16;;;;;;;25.50;20.57;;;;;;;1.23;88.08;99479.08;113215;1203;64391;-77
2021/04/14 05:00:43;;;;;;;24.90;22.27;;;;;;;1.25;87.81;99482.54;113346;1203;64369;-78
2021/04/14 05:03:12;;;;;;;25.55;22.00;;;;;;;1.28;87.74;99486.86;113364;1203;64500;-77
2021/04/14 05:05:41;;;;;;;28.70;23.80;;;;;;;1.29;87.82;99485.95;113238;1203;64497;-78
2021/04/14 05:08:11;;;;;;;30.87;24.50;;;;;;;1.30;87.71;99490.33;113087;1203;64403;-78
2021/04/14 05:10:38;;;;;;;27.57;24.50;;;;;;;1.34;87.89;99486.72;113118;1203;64477;-78
2021/04/14 05:13:07;;;;;;;22.85;20.45;;;;;;;1.37;87.63;99491.94;113087;1203;64394;-79
2021/04/14 05:15:36;;;;;;;19.93;17.87;;;;;;;1.39;87.78;99489.25;113132;1203;64423;-78
2021/04/14 05:18:03;;;;;;;20.37;18.33;;;;;;;1.41;87.77;99490.09;113154;1203;64353;-78
2021/04/14 05:20:30;;;;;;;21.70;19.40;;;;;;;1.46;87.62;99493.48;113150;1203;64474;-78
2021/04/14 05:22:57;;;;;;;21.70;19.40;;;;;;;1.47;87.55;99488.18;113088;1203;64395;-78
2021/04/14 05:25:30;;;;;;;23.23;20.23;;;;;;;1.53;87.62;99493.31;113073;1203;64397;-78
2021/04/14 05:28:01;;;;;;;23.20;20.70;;;;;;;1.59;87.52;99496.70;113182;1203;64483;-79
2021/04/14 05:30:28;;;;;;;22.40;19.65;;;;;;;1.64;87.43;99492.22;113125;1203;64401;-78
2021/04/14 05:32:55;;;;;;;23.23;20.90;;;;;;;1.67;87.38;99493.00;113068;1203;64851;-79
2021/04/14 05:35:21;;;;;;;21.13;18.83;;;;;;;1.70;87.24;99490.30;113097;1203;64476;-79
2021/04/14 05:37:48;;;;;;;19.83;17.03;;;;;;;1.77;87.22;99495.44;113085;1203;64327;-79
2021/04/14 05:40:15;;;;;;;19.45;17.10;;;;;;;1.81;87.18;99499.70;113202;1203;64388;-79
2021/04/14 05:42:44;;;;;;;21.80;19.43;;;;;;;1.84;86.87;99495.22;113353;1203;64388;-79
2021/04/14 05:45:18;;;;;;;18.65;16.85;;;;;;;1.84;87.05;99503.11;113125;1203;64356;-79
2021/04/14 05:47:44;;;;;;;22.30;18.80;;;;;;;1.86;86.80;99500.45;113126;1203;64483;-79
2021/04/14 05:50:15;;;;;;;17.65;15.75;;;;;;;1.89;86.85;99503.87;113324;1203;64505;-79
2021/04/14 05:52:42;;;;;;;18.35;16.35;;;;;;;1.94;86.90;99502.00;113365;1203;64427;-79
2021/04/14 05:55:09;;;;;;;18.50;16.50;;;;;;;2.01;87.01;99507.13;113239;1203;64429;-79
2021/04/14 05:57:36;;;;;;;16.83;15.20;;;;;;;2.04;86.69;99512.30;113270;1203;64481;-79
2021/04/14 06:00:29;;;;;;;16.67;13.60;;;;;;;2.06;86.37;99511.38;113079;1203;64432;-79
2021/04/14 06:02:56;;;;;;;17.05;15.35;;;;;;;2.17;86.41;99511.11;113442;1203;64500;-79
2021/04/14 06:05:25;;;;;;;19.20;17.30;;;;;;;2.22;86.47;99514.49;113327;1203;64467;-80
2021/04/14 06:07:52;;;;;;;18.30;16.40;;;;;;;2.29;86.45;99512.55;113433;1203;64503;-80
2021/04/14 06:10:22;;;;;;;20.03;17.60;;;;;;;2.30;86.21;99511.67;113207;1203;64327;-79
2021/04/14 06:12:49;;;;;;;;;;;;;;;2.30;86.32;99512.53;113367;1211;64394;-80
2021/04/14 06:15:21;;;;;;;18.40;15.80;;;;;;;2.34;85.88;99513.30;113366;1203;64385;-81
2021/04/14 06:17:48;;;;;;;17.50;15.75;;;;;;;2.40;86.04;99521.92;113479;1203;64506;-81
2021/04/14 06:20:18;;;;;;;16.80;15.10;;;;;;;2.43;86.11;99518.34;113301;1203;65458;-80
2021/04/14 06:22:44;;;;;;;15.67;14.13;;;;;;;2.37;85.98;99515.85;113290;1203;64840;-79
2021/04/14 06:25:14;;;;;;;16.50;14.90;;;;;;;2.31;86.16;99519.50;113422;1203;64561;-82
2021/04/14 06:27:54;;;;;;;19.27;17.13;;;;;;;2.32;86.08;99513.36;113372;1203;64423;-81
2021/04/14 06:30:22;;;;;;;17.80;16.00;;;;;;;2.23;85.92;99520.61;113246;1203;64449;-79
2021/04/14 06:32:50;;;;;;;16.60;14.80;;;;;;;2.19;85.75;99519.83;113191;1203;64355;-80
2021/04/14 06:35:17;;;;;;;16.30;14.20;;;;;;;2.19;85.84;99520.69;113002;1203;64576;-79
2021/04/14 06:37:44;;;;;;;17.20;15.60;;;;;;;2.24;86.14;99519.69;113120;1203;64461;-79
2021/04/14 06:40:46;;;;;;;16.00;14.40;;;;;;;2.29;85.87;99516.08;113120;1203;64423;-80
2021/04/14 06:43:44;;;;;;;18.10;16.10;;;;;;;2.33;85.78;99516.84;113123;1203;64410;-78
2021/04/14 06:46:15;;;;;;;17.20;15.40;;;;;;;2.33;85.97;99524.73;113132;1203;64365;-78
2021/04/14 06:49:03;;;;;;;16.57;14.90;;;;;;;2.30;85.94;99522.19;113068;1203;64529;-78
2021/04/14 06:51:46;;;;;;;15.70;14.13;;;;;;;2.28;85.81;99521.36;113299;1203;64439;-80
2021/04/14 06:54:32;;;;;;;15.87;14.20;;;;;;;2.28;86.03;99522.22;113356;1203;64439;-80
2021/04/14 06:57:19;;;;;;;16.00;14.50;;;;;;;2.31;85.72;99521.28;113302;1203;64400;-79
2021/04/14 06:59:58;;;;;;;14.30;12.90;;;;;;;2.36;85.48;99533.41;113085;1203;64435;-78
2021/04/14 07:02:31;;;;;;;17.40;14.95;;;;;;;2.33;85.37;99524.73;113099;1203;64524;-78
2021/04/14 07:05:04;;;;;;;16.30;14.30;;;;;;;2.41;85.15;99526.27;113137;1203;64350;-78
2021/04/14 07:07:34;;;;;;;17.10;14.83;;;;;;;2.67;84.84;99508.09;113178;1203;64423;-79
2021/04/14 07:10:10;;;;;;;13.90;12.50;;;;;;;3.03;84.83;99496.56;113239;1203;64327;-79
2021/04/14 07:12:38;;;;;;;13.90;12.47;;;;;;;3.39;83.91;99499.02;113125;1203;64465;-80
2021/04/14 07:15:05;;;;;;;14.70;13.10;;;;;;;3.65;83.82;99497.38;113108;1203;64745;-80
2021/04/14 07:17:51;;;;;;;15.10;13.70;;;;;;;3.92;82.93;99498.28;113171;1203;64392;-79
2021/04/14 07:20:26;;;;;;;16.40;14.87;;;;;;;4.12;82.62;99502.93;113234;1203;64397;-79
2021/04/14 07:23:08;;;;;;;15.50;14.00;;;;;;;4.29;81.89;99500.61;113187;1203;64385;-80
2021/04/14 07:25:40;;;;;;;15.45;12.70;;;;;;;4.42;81.36;99492.27;113123;1203;64359;-78
2021/04/14 07:28:25;;;;;;;14.50;12.60;;;;;;;4.60;81.33;99494.28;113111;1203;64340;-78
2021/04/14 07:31:06;;;;;;;13.90;12.50;;;;;;;4.84;81.02;99503.11;113099;1203;64535;-78
2021/04/14 07:33:38;;;;;;;;;;;;;;;4.94;80.18;99501.02;113138;1211;64388;-80
2021/04/14 07:36:25;;;;;;;12.95;10.45;;;;;;;5.00;80.13;99501.67;113263;1203;64496;-78
2021/04/14 07:39:26;;;;;;;13.95;12.25;;;;;;;4.88;78.85;99506.53;113164;1203;64401;-81
2021/04/14 07:42:05;;;;;;;11.17;9.33;;;;;;;4.66;77.90;99493.20;113205;1203;64522;-80
2021/04/14 07:44:42;;;;;;;9.87;8.93;;;;;;;4.38;78.78;99504.71;113203;1203;64343;-80
2021/04/14 07:47:13;;;;;;;10.60;9.60;;;;;;;4.19;78.70;99509.74;113115;1203;64506;-80
2021/04/14 07:49:41;;;;;;;11.77;7.60;;;;;;;3.98;79.08;99518.31;113227;1203;64398;-80
2021/04/14 07:52:10;;;;;;;11.10;7.00;;;;;;;3.79;79.03;99528.58;113189;1203;64394;-80
2021/04/14 07:54:43;;;;;;;8.60;6.43;;;;;;;3.71;79.17;99516.52;113099;1203;64353;-80
2021/04/14 07:57:10;;;;;;;13.83;8.67;;;;;;;3.66;79.97;99521.06;113287;1203;64510;-80
2021/04/14 07:59:40;;;;;;;8.90;7.90;;;;;;;3.68;79.95;99524.49;113375;1203;64407;-80
2021/04/14 08:02:12;;;;;;;9.80;7.95;;;;;;;3.70;79.59;99535.00;113392;1203;64384;-79
2021/04/14 08:04:46;;;;;;;12.80;8.25;;;;;;;3.70;79.52;99524.46;113373;1203;64330;-79
2021/04/14 08:07:22;;;;;;;9.10;7.80;;;;;;;3.63;79.92;99525.55;113139;1203;64406;-79
2021/04/14 08:09:58;;;;;;;10.90;8.60;;;;;;;3.84;80.22;99530.16;113217;1203;64432;-79
2021/04/14 08:12:34;;;;;;;13.70;9.77;;;;;;;4.15;79.90;99523.93;113240;1203;64436;-79
2021/04/14 08:15:26;;;;;;;13.33;8.80;;;;;;;4.38;79.22;99524.04;113431;1203;64509;-79
2021/04/14 08:18:05;;;;;;;10.90;7.70;;;;;;;4.66;79.08;99524.88;113208;1203;64387;-80
2021/04/14 08:20:34;;;;;;;8.80;6.50;;;;;;;4.68;78.52;99523.91;113229;1203;64327;-80
2021/04/14 08:23:23;;;;;;;10.00;7.10;;;;;;;4.73;78.49;99529.04;113206;1203;64465;-80
2021/04/14 08:25:55;;;;;;;10.00;8.35;;;;;;;4.75;78.84;99532.50;113179;1203;64506;-80
2021/04/14 08:28:44;;;;;;;7.55;6.70;;;;;;;4.73;78.07;99521.12;113356;1203;64359;-81
2021/04/14 08:31:19;;;;;;;11.90;7.70;;;;;;;4.86;78.43;99525.05;113407;1203;64385;-80
2021/04/14 08:33:52;;;;;;;7.20;6.00;;;;;;;5.01;77.53;99519.23;113560;1203;64426;-80
2021/04/14 08:36:39;;;;;;;7.87;3.90;;;;;;;5.03;76.18;99517.41;113746;1203;64375;-81
2021/04/14 08:39:16;;;;;;;4.05;3.75;;;;;;;4.93;75.55;99520.44;113691;1203;64395;-81
2021/04/14 08:41:46;;;;;;;4.83;4.37;;;;;;;4.91;75.59;99517.83;113656;1203;64407;-80
2021/04/14 08:44:17;;;;;;;5.20;4.50;;;;;;;5.01;75.15;99515.73;113632;1203;64436;-80
2021/04/14 08:46:44;;;;;;;5.60;4.60;;;;;;;5.22;75.19;99514.09;113355;1203;64304;-82
2021/04/14 08:49:11;;;;;;;7.00;4.70;;;;;;;5.30;75.77;99508.53;113276;1203;64528;-81
2021/04/14 08:51:42;;;;;;;6.93;4.90;;;;;;;5.10;75.08;99502.18;113274;1203;64691;-80
2021/04/14 08:54:15;;;;;;;7.30;6.25;;;;;;;4.90;74.91;99512.59;113248;1203;64359;-81
2021/04/14 08:56:42;;;;;;;7.50;6.45;;;;;;;4.79;75.22;99512.97;113459;1203;64414;-81
2021/04/14 08:59:11;;;;;;;8.80;6.90;;;;;;;5.02;75.89;99509.52;113426;1203;64513;-81
2021/04/14 09:01:38;;;;;;;7.77;6.50;;;;;;;5.15;75.11;99507.30;113294;1203;64384;-82
2021/04/14 09:04:11;;;;;;;7.50;5.95;;;;;;;5.30;75.22;99503.25;113608;1203;64439;-79
2021/04/14 09:06:46;;;;;;;9.13;6.90;;;;;;;5.56;73.83;99505.77;113686;1203;64477;-83
2021/04/14 09:09:24;;;;;;;8.80;5.85;;;;;;;5.79;73.36;99488.98;113393;1203;64461;-81
2021/04/14 09:12:08;;;;;;;6.40;5.75;;;;;;;5.87;72.47;99501.91;113798;1203;64365;-80
2021/04/14 09:14:37;;;;;;;7.73;5.87;;;;;;;5.77;72.14;99488.20;113712;1203;64728;-81
2021/04/14 09:17:17;;;;;;;6.70;6.00;;;;;;;5.58;71.83;99498.64;113340;1203;64349;-83
2021/04/14 09:19:50;;;;;;;8.33;7.53;;;;;;;5.35;73.99;99491.58;113345;1203;64346;-81
2021/04/14 09:22:29;;;;;;;8.45;7.25;;;;;;;5.21;73.99;99488.57;113227;1203;64401;-80
2021/04/14 09:25:02;;;;;;;9.70;7.80;;;;;;;5.17;72.65;99490.48;113206;1203;64381;-81
2021/04/14 09:27:38;;;;;;;8.45;7.50;;;;;;;5.33;73.19;99493.41;113199;1203;64327;-81
2021/04/14 09:30:31;;;;;;;8.60;6.63;;;;;;;5.53;72.94;99484.73;113283;1203;64400;-83
2021/04/14 09:33:07;;;;;;;6.30;5.60;;;;;;;5.50;71.87;99487.47;113565;1203;64394;-84
2021/04/14 09:35:34;;;;;;;10.27;6.47;;;;;;;5.40;72.17;99488.77;113174;1203;64417;-83
2021/04/14 09:38:22;;;;;;;10.90;8.20;;;;;;;5.43;73.08;99491.30;113178;1203;64423;-83
2021/04/14 09:40:50;;;;;;;9.63;7.90;;;;;;;5.56;73.04;99483.76;113317;1203;64564;-83
2021/04/14 09:43:38;;;;;;;7.70;7.00;;;;;;;5.69;72.87;99477.92;113288;1203;64388;-84
2021/04/14 09:46:08;;;;;;;8.50;7.00;;;;;;;5.54;71.50;99475.88;113225;1203;64327;-82
2021/04/14 09:48:50;;;;;;;7.77;6.93;;;;;;;5.40;72.71;99476.41;113278;1203;64433;-82
2021/04/14 09:51:34;;;;;;;9.50;8.60;;;;;;;5.35;72.59;99478.36;113257;1203;64500;-82
2021/04/14 09:54:16;;;;;;;10.80;7.50;;;;;;;5.36;72.23;99481.86;113275;1203;64544;-84
2021/04/14 09:56:50;;;;;;;7.65;6.90;;;;;;;5.42;72.61;99471.91;113366;1203;64391;-84
2021/04/14 09:59:27;;;;;;;7.00;5.55;;;;;;;5.57;71.41;99473.11;113401;1203;64593;-83
2021/04/14 10:02:00;;;;;;;7.90;7.00;;;;;;;5.53;71.60;99468.88;113491;1203;64394;-84
2021/04/14 10:04:27;;;;;;;10.60;7.00;;;;;;;5.46;70.94;99470.88;113210;1203;64400;-83
2021/04/14 10:07:06;;;;;;;10.80;7.37;;;;;;;5.38;70.51;99465.03;113247;1203;64378;-84
2021/04/14 10:09:38;;;;;;;8.13;5.93;;;;;;;5.21;70.19;99473.61;113220;1203;64458;-82
2021/04/14 10:12:13;;;;;;;8.65;7.10;;;;;;;5.16;72.42;99477.31;113361;1203;64391;-83
2021/04/14 10:14:47;;;;;;;8.70;7.60;;;;;;;5.30;71.72;99468.89;113318;1203;64508;-82
2021/04/14 10:17:17;;;;;;;9.33;6.67;;;;;;;5.41;71.49;99469.34;113291;1203;64532;-82
2021/04/14 10:19:44;;;;;;;9.70;8.20;;;;;;;5.62;71.00;99455.28;113277;1203;64378;-84
2021/04/14 10:22:18;;;;;;;7.20;6.43;;;;;;;5.88;70.03;99458.68;113424;1203;64426;-84
2021/04/14 10:24:46;;;;;;;9.67;6.50;;;;;;;6.11;69.00;99455.14;113306;1203;64688;-84
2021/04/14 10:27:20;;;;;;;7.70;6.10;;;;;;;6.22;68.22;99455.55;113268;1203;64435;-83
2021/04/14 10:29:48;;;;;;;7.30;6.00;;;;;;;6.12;68.86;99448.91;113156;1203;64427;-83
2021/04/14 10:32:24;;;;;;;6.40;5.80;;;;;;;6.00;69.74;99450.26;113306;1203;64874;-83
2021/04/14 10:34:51;;;;;;;6.80;5.80;;;;;;;5.96;68.71;99450.47;113250;1203;64398;-83
2021/04/14 10:37:22;;;;;;;8.90;5.30;;;;;;;5.77;68.64;99448.53;113246;1203;64388;-84
2021/04/14 10:39:50;;;;;;;13.07;6.50;;;;;;;5.61;69.14;99450.04;113265;1203;64384;-84
2021/04/14 10:42:22;;;;;;;7.80;6.00;;;;;;;5.57;69.36;99451.95;113145;1203;64480;-82
2021/04/14 10:44:49;;;;;;;9.67;6.37;;;;;;;5.57;68.21;99454.59;113306;1203;64410;-83
2021/04/14 10:47:33;;;;;;;9.40;5.10;;;;;;;5.44;68.34;99456.85;113234;1203;64336;-83
2021/04/14 10:50:22;;;;;;;9.53;5.83;;;;;;;5.43;67.80;99449.00;113132;1203;64468;-83
2021/04/14 10:53:04;;;;;;;9.10;5.35;;;;;;;5.58;68.83;99447.52;113167;1203;64401;-83
2021/04/14 10:55:38;;;;;;;7.47;5.50;;;;;;;5.69;69.03;99448.84;113243;1203;64516;-83
2021/04/14 10:58:07;;;;;;;6.40;5.15;;;;;;;5.79;67.67;99446.66;113471;1203;64438;-85
2021/04/14 11:00:39;;;;;;;7.80;4.80;;;;;;;5.81;67.95;99446.61;113273;1203;64397;-83
2021/04/14 11:03:09;;;;;;;9.73;5.37;;;;;;;6.01;67.69;99452.00;113421;1203;64420;-83
2021/04/14 11:05:38;;;;;;;10.00;5.40;;;;;;;6.35;67.30;99437.37;113360;1203;64346;-82
2021/04/14 11:08:08;;;;;;;11.70;6.30;;;;;;;6.52;65.61;99447.22;113397;1203;64368;-83
2021/04/14 11:10:38;;;;;;;9.53;5.10;;;;;;;6.40;65.97;99434.50;113487;1203;64333;-82
2021/04/14 11:13:12;;;;;;;9.80;5.50;;;;;;;6.33;66.26;99433.91;113486;1203;64433;-83
2021/04/14 11:15:44;;;;;;;8.05;4.90;;;;;;;6.30;64.63;99426.97;113293;1203;64343;-83
2021/04/14 11:18:14;;;;;;;7.43;4.30;;;;;;;6.26;65.25;99432.45;113361;1203;64496;-83
2021/04/14 11:20:56;;;;;;;8.13;5.43;;;;;;;6.30;66.33;99431.41;113187;1203;64406;-83
2021/04/14 11:23:30;;;;;;;7.83;4.40;;;;;;;6.41;65.02;99425.65;113232;1203;64494;-83
2021/04/14 11:26:18;;;;;;;9.57;6.60;;;;;;;6.59;65.47;99427.50;113328;1203;64384;-83
2021/04/14 11:28:50;;;;;;;8.10;4.95;;;;;;;6.84;64.67;99414.02;113463;1203;64394;-83
2021/04/14 11:31:36;;;;;;;7.00;4.03;;;;;;;7.15;64.23;99417.92;113242;1203;64317;-83
2021/04/14 11:34:15;;;;;;;8.65;5.45;;;;;;;7.48;62.59;99419.01;113248;1203;64445;-83
2021/04/14 11:37:13;;;;;;;5.80;4.75;;;;;;;7.64;62.04;99407.67;113328;1203;64848;-85
2021/04/14 11:40:10;;;;;;;6.40;4.30;;;;;;;7.61;61.39;99408.67;113270;1203;64391;-84
2021/04/14 11:42:56;;;;;;;8.20;5.25;;;;;;;7.55;62.71;99408.09;113237;1203;64375;-84